sensor_id;sensor_type;location;lat;lon;timestamp;P1;durP1;ratioP1;P2;durP2;ratioP2
41623;SDS011;27319;50.306;18.926;2024-02-04T00:01:57;11.45;;;7.53;;
41623;SDS011;27319;50.306;18.926;2024-02-04T00:05:58;21.70;;;11.43;;
41623;SDS011;27319;50.306;18.926;2024-02-04T00:09:59;16.20;;;9.35;;
41623;SDS011;27319;50.306;18.926;2024-02-04T00:13:59;123.38;;;50.05;;
41623;SDS011;27319;50.306;18.926;2024-02-04T00:18:00;31.13;;;16.13;;
41623;SDS011;27319;50.306;18.926;2024-02-04T00:22:01;65.35;;;25.90;;
41623;SDS011;27319;50.306;18.926;2024-02-04T00:26:02;46.40;;;18.58;;
41623;SDS011;27319;50.306;18.926;2024-02-04T00:30:03;24.55;;;12.32;;
41623;SDS011;27319;50.306;18.926;2024-02-04T00:34:03;40.45;;;15.82;;
41623;SDS011;27319;50.306;18.926;2024-02-04T00:38:04;33.13;;;16.00;;
41623;SDS011;27319;50.306;18.926;2024-02-04T00:42:05;59.20;;;24.92;;
41623;SDS011;27319;50.306;18.926;2024-02-04T00:46:06;33.63;;;15.57;;
41623;SDS011;27319;50.306;18.926;2024-02-04T00:50:07;25.00;;;12.55;;
41623;SDS011;27319;50.306;18.926;2024-02-04T00:54:08;25.00;;;13.80;;
41623;SDS011;27319;50.306;18.926;2024-02-04T00:58:08;21.08;;;11.75;;
41623;SDS011;27319;50.306;18.926;2024-02-04T01:02:09;26.13;;;14.43;;
41623;SDS011;27319;50.306;18.926;2024-02-04T01:06:10;26.35;;;12.98;;
41623;SDS011;27319;50.306;18.926;2024-02-04T01:10:11;38.67;;;21.25;;
41623;SDS011;27319;50.306;18.926;2024-02-04T01:14:12;41.17;;;18.50;;
41623;SDS011;27319;50.306;18.926;2024-02-04T01:18:12;17.42;;;10.80;;
41623;SDS011;27319;50.306;18.926;2024-02-04T01:22:13;22.92;;;12.18;;
41623;SDS011;27319;50.306;18.926;2024-02-04T01:26:14;17.88;;;10.27;;
41623;SDS011;27319;50.306;18.926;2024-02-04T01:30:15;19.30;;;12.48;;
41623;SDS011;27319;50.306;18.926;2024-02-04T01:34:15;15.15;;;9.45;;
41623;SDS011;27319;50.306;18.926;2024-02-04T01:38:16;13.38;;;8.57;;
41623;SDS011;27319;50.306;18.926;2024-02-04T01:42:16;11.32;;;7.85;;
41623;SDS011;27319;50.306;18.926;2024-02-04T01:46:17;13.32;;;8.13;;
41623;SDS011;27319;50.306;18.926;2024-02-04T01:50:18;14.80;;;7.55;;
41623;SDS011;27319;50.306;18.926;2024-02-04T01:54:20;8.32;;;5.13;;
41623;SDS011;27319;50.306;18.926;2024-02-04T01:58:20;8.25;;;5.65;;
41623;SDS011;27319;50.306;18.926;2024-02-04T02:02:21;11.40;;;7.13;;
41623;SDS011;27319;50.306;18.926;2024-02-04T02:06:22;11.13;;;5.80;;
41623;SDS011;27319;50.306;18.926;2024-02-04T02:10:23;10.13;;;7.25;;
41623;SDS011;27319;50.306;18.926;2024-02-04T02:14:24;5.90;;;3.95;;
41623;SDS011;27319;50.306;18.926;2024-02-04T02:18:25;4.25;;;2.75;;
41623;SDS011;27319;50.306;18.926;2024-02-04T02:26:18;3.17;;;2.00;;
41623;SDS011;27319;50.306;18.926;2024-02-04T02:30:19;3.67;;;1.90;;
41623;SDS011;27319;50.306;18.926;2024-02-04T02:34:20;3.50;;;2.00;;
41623;SDS011;27319;50.306;18.926;2024-02-04T02:38:25;5.82;;;2.55;;
41623;SDS011;27319;50.306;18.926;2024-02-04T02:42:24;7.07;;;2.60;;
41623;SDS011;27319;50.306;18.926;2024-02-04T02:46:25;3.03;;;1.88;;
41623;SDS011;27319;50.306;18.926;2024-02-04T02:50:26;4.63;;;1.98;;
41623;SDS011;27319;50.306;18.926;2024-02-04T02:54:26;14.63;;;5.10;;
41623;SDS011;27319;50.306;18.926;2024-02-04T02:58:27;7.82;;;3.38;;
41623;SDS011;27319;50.306;18.926;2024-02-04T03:02:28;7.35;;;2.55;;
41623;SDS011;27319;50.306;18.926;2024-02-04T03:06:28;4.25;;;2.03;;
41623;SDS011;27319;50.306;18.926;2024-02-04T03:10:29;2.25;;;1.80;;
41623;SDS011;27319;50.306;18.926;2024-02-04T03:14:30;8.55;;;3.13;;
41623;SDS011;27319;50.306;18.926;2024-02-04T03:18:31;3.72;;;1.90;;
41623;SDS011;27319;50.306;18.926;2024-02-04T03:22:32;3.22;;;1.75;;
41623;SDS011;27319;50.306;18.926;2024-02-04T03:26:32;4.68;;;2.25;;
41623;SDS011;27319;50.306;18.926;2024-02-04T03:29:33;3.60;;;1.70;;
41623;SDS011;27319;50.306;18.926;2024-02-04T03:32:34;3.67;;;1.58;;
41623;SDS011;27319;50.306;18.926;2024-02-04T03:35:35;2.97;;;2.10;;
41623;SDS011;27319;50.306;18.926;2024-02-04T03:38:37;4.97;;;2.53;;
41623;SDS011;27319;50.306;18.926;2024-02-04T03:41:38;5.63;;;2.42;;
41623;SDS011;27319;50.306;18.926;2024-02-04T03:44:39;5.15;;;2.03;;
41623;SDS011;27319;50.306;18.926;2024-02-04T03:47:40;5.97;;;2.10;;
41623;SDS011;27319;50.306;18.926;2024-02-04T03:50:41;3.95;;;2.30;;
41623;SDS011;27319;50.306;18.926;2024-02-04T03:53:42;4.20;;;2.40;;
41623;SDS011;27319;50.306;18.926;2024-02-04T03:56:43;2.95;;;1.67;;
41623;SDS011;27319;50.306;18.926;2024-02-04T03:59:44;4.28;;;2.30;;
41623;SDS011;27319;50.306;18.926;2024-02-04T04:02:46;5.47;;;2.67;;
41623;SDS011;27319;50.306;18.926;2024-02-04T04:05:47;4.05;;;2.13;;
41623;SDS011;27319;50.306;18.926;2024-02-04T04:08:48;6.38;;;3.67;;
41623;SDS011;27319;50.306;18.926;2024-02-04T04:11:49;7.43;;;3.00;;
41623;SDS011;27319;50.306;18.926;2024-02-04T04:14:50;11.48;;;3.50;;
41623;SDS011;27319;50.306;18.926;2024-02-04T04:17:51;6.30;;;3.25;;
41623;SDS011;27319;50.306;18.926;2024-02-04T04:20:52;5.13;;;2.90;;
41623;SDS011;27319;50.306;18.926;2024-02-04T04:23:53;6.30;;;3.33;;
41623;SDS011;27319;50.306;18.926;2024-02-04T04:26:54;6.38;;;3.47;;
41623;SDS011;27319;50.306;18.926;2024-02-04T04:29:54;6.18;;;3.67;;
41623;SDS011;27319;50.306;18.926;2024-02-04T04:32:56;8.55;;;5.30;;
41623;SDS011;27319;50.306;18.926;2024-02-04T04:35:56;7.78;;;6.30;;
41623;SDS011;27319;50.306;18.926;2024-02-04T04:38:58;8.27;;;5.57;;
41623;SDS011;27319;50.306;18.926;2024-02-04T04:41:59;8.13;;;6.28;;
41623;SDS011;27319;50.306;18.926;2024-02-04T04:45:00;7.38;;;5.07;;
41623;SDS011;27319;50.306;18.926;2024-02-04T04:48:01;6.70;;;4.00;;
41623;SDS011;27319;50.306;18.926;2024-02-04T04:51:02;5.35;;;3.72;;
41623;SDS011;27319;50.306;18.926;2024-02-04T04:54:03;6.95;;;4.75;;
41623;SDS011;27319;50.306;18.926;2024-02-04T04:57:04;6.55;;;4.15;;
41623;SDS011;27319;50.306;18.926;2024-02-04T05:00:05;8.13;;;5.55;;
41623;SDS011;27319;50.306;18.926;2024-02-04T05:03:10;8.25;;;4.90;;
41623;SDS011;27319;50.306;18.926;2024-02-04T05:06:11;8.10;;;5.65;;
41623;SDS011;27319;50.306;18.926;2024-02-04T05:09:12;9.95;;;6.63;;
41623;SDS011;27319;50.306;18.926;2024-02-04T05:12:13;7.07;;;3.85;;
41623;SDS011;27319;50.306;18.926;2024-02-04T05:15:13;9.68;;;3.75;;
41623;SDS011;27319;50.306;18.926;2024-02-04T05:18:15;5.78;;;3.65;;
41623;SDS011;27319;50.306;18.926;2024-02-04T05:21:15;7.18;;;3.65;;
41623;SDS011;27319;50.306;18.926;2024-02-04T05:24:16;5.50;;;3.47;;
41623;SDS011;27319;50.306;18.926;2024-02-04T05:27:17;5.63;;;3.97;;
41623;SDS011;27319;50.306;18.926;2024-02-04T05:30:18;6.50;;;3.53;;
41623;SDS011;27319;50.306;18.926;2024-02-04T05:33:19;5.53;;;3.00;;
41623;SDS011;27319;50.306;18.926;2024-02-04T05:36:20;4.03;;;3.05;;
41623;SDS011;27319;50.306;18.926;2024-02-04T05:39:21;4.50;;;3.35;;
41623;SDS011;27319;50.306;18.926;2024-02-04T05:42:24;6.38;;;4.10;;
41623;SDS011;27319;50.306;18.926;2024-02-04T05:45:25;6.97;;;3.53;;
41623;SDS011;27319;50.306;18.926;2024-02-04T05:48:26;4.68;;;3.17;;
41623;SDS011;27319;50.306;18.926;2024-02-04T05:51:27;5.93;;;2.50;;
41623;SDS011;27319;50.306;18.926;2024-02-04T05:54:28;4.25;;;2.40;;
41623;SDS011;27319;50.306;18.926;2024-02-04T05:57:29;7.38;;;3.00;;
41623;SDS011;27319;50.306;18.926;2024-02-04T06:00:30;8.55;;;3.17;;
41623;SDS011;27319;50.306;18.926;2024-02-04T06:03:30;5.20;;;2.72;;
41623;SDS011;27319;50.306;18.926;2024-02-04T06:06:31;4.22;;;2.28;;
41623;SDS011;27319;50.306;18.926;2024-02-04T06:09:33;5.13;;;2.33;;
41623;SDS011;27319;50.306;18.926;2024-02-04T06:12:34;5.50;;;2.67;;
41623;SDS011;27319;50.306;18.926;2024-02-04T06:15:35;4.32;;;2.38;;
41623;SDS011;27319;50.306;18.926;2024-02-04T06:18:36;8.02;;;2.40;;
41623;SDS011;27319;50.306;18.926;2024-02-04T06:21:39;4.40;;;2.10;;
41623;SDS011;27319;50.306;18.926;2024-02-04T06:24:41;3.63;;;1.98;;
41623;SDS011;27319;50.306;18.926;2024-02-04T06:27:41;5.45;;;2.13;;
41623;SDS011;27319;50.306;18.926;2024-02-04T06:30:42;4.75;;;2.33;;
41623;SDS011;27319;50.306;18.926;2024-02-04T06:33:43;13.38;;;4.82;;
41623;SDS011;27319;50.306;18.926;2024-02-04T06:36:44;9.77;;;4.53;;
41623;SDS011;27319;50.306;18.926;2024-02-04T06:39:45;11.70;;;3.85;;
41623;SDS011;27319;50.306;18.926;2024-02-04T06:42:46;7.93;;;3.05;;
41623;SDS011;27319;50.306;18.926;2024-02-04T06:45:47;8.40;;;3.35;;
41623;SDS011;27319;50.306;18.926;2024-02-04T06:48:48;5.65;;;2.75;;
41623;SDS011;27319;50.306;18.926;2024-02-04T06:51:49;7.28;;;3.13;;
41623;SDS011;27319;50.306;18.926;2024-02-04T06:54:51;12.80;;;4.75;;
41623;SDS011;27319;50.306;18.926;2024-02-04T06:57:52;12.40;;;4.07;;
41623;SDS011;27319;50.306;18.926;2024-02-04T07:00:53;11.23;;;4.65;;
41623;SDS011;27319;50.306;18.926;2024-02-04T07:03:53;7.63;;;3.42;;
41623;SDS011;27319;50.306;18.926;2024-02-04T07:06:54;7.55;;;3.58;;
41623;SDS011;27319;50.306;18.926;2024-02-04T07:09:56;14.85;;;4.60;;
41623;SDS011;27319;50.306;18.926;2024-02-04T07:12:58;10.98;;;4.80;;
41623;SDS011;27319;50.306;18.926;2024-02-04T07:15:59;14.38;;;4.70;;
41623;SDS011;27319;50.306;18.926;2024-02-04T07:19:00;11.13;;;4.93;;
41623;SDS011;27319;50.306;18.926;2024-02-04T07:22:01;9.80;;;3.83;;
41623;SDS011;27319;50.306;18.926;2024-02-04T07:25:02;7.60;;;3.95;;
41623;SDS011;27319;50.306;18.926;2024-02-04T07:28:03;6.45;;;3.55;;
41623;SDS011;27319;50.306;18.926;2024-02-04T07:31:05;10.98;;;4.05;;
41623;SDS011;27319;50.306;18.926;2024-02-04T07:34:05;8.95;;;4.28;;
41623;SDS011;27319;50.306;18.926;2024-02-04T07:37:07;10.52;;;4.50;;
41623;SDS011;27319;50.306;18.926;2024-02-04T07:40:07;8.38;;;3.83;;
41623;SDS011;27319;50.306;18.926;2024-02-04T07:43:09;11.82;;;4.32;;
41623;SDS011;27319;50.306;18.926;2024-02-04T07:46:10;12.15;;;4.60;;
41623;SDS011;27319;50.306;18.926;2024-02-04T07:49:11;11.63;;;4.18;;
41623;SDS011;27319;50.306;18.926;2024-02-04T07:52:12;9.68;;;4.28;;
41623;SDS011;27319;50.306;18.926;2024-02-04T07:55:13;10.77;;;4.28;;
41623;SDS011;27319;50.306;18.926;2024-02-04T07:58:14;12.82;;;5.28;;
41623;SDS011;27319;50.306;18.926;2024-02-04T08:01:15;11.18;;;4.85;;
41623;SDS011;27319;50.306;18.926;2024-02-04T08:04:18;20.85;;;6.22;;
41623;SDS011;27319;50.306;18.926;2024-02-04T08:08:22;7.07;;;2.95;;
41623;SDS011;27319;50.306;18.926;2024-02-04T08:12:23;12.25;;;4.93;;
41623;SDS011;27319;50.306;18.926;2024-02-04T08:16:24;10.98;;;4.55;;
41623;SDS011;27319;50.306;18.926;2024-02-04T08:20:24;11.52;;;3.95;;
41623;SDS011;27319;50.306;18.926;2024-02-04T08:24:25;11.98;;;5.60;;
41623;SDS011;27319;50.306;18.926;2024-02-04T08:28:25;14.05;;;5.95;;
41623;SDS011;27319;50.306;18.926;2024-02-04T08:32:26;12.40;;;5.10;;
41623;SDS011;27319;50.306;18.926;2024-02-04T08:36:28;9.60;;;4.15;;
41623;SDS011;27319;50.306;18.926;2024-02-04T08:40:28;10.68;;;5.88;;
41623;SDS011;27319;50.306;18.926;2024-02-04T08:44:29;15.18;;;5.45;;
41623;SDS011;27319;50.306;18.926;2024-02-04T08:48:29;12.00;;;4.68;;
41623;SDS011;27319;50.306;18.926;2024-02-04T08:52:30;12.20;;;4.15;;
41623;SDS011;27319;50.306;18.926;2024-02-04T08:56:31;14.90;;;4.78;;
41623;SDS011;27319;50.306;18.926;2024-02-04T09:00:31;16.52;;;5.82;;
41623;SDS011;27319;50.306;18.926;2024-02-04T09:03:32;12.73;;;5.20;;
41623;SDS011;27319;50.306;18.926;2024-02-04T09:06:34;9.63;;;4.72;;
41623;SDS011;27319;50.306;18.926;2024-02-04T09:09:35;14.18;;;5.15;;
41623;SDS011;27319;50.306;18.926;2024-02-04T09:12:36;10.88;;;4.78;;
41623;SDS011;27319;50.306;18.926;2024-02-04T09:15:37;12.45;;;5.93;;
41623;SDS011;27319;50.306;18.926;2024-02-04T09:18:38;10.02;;;4.40;;
41623;SDS011;27319;50.306;18.926;2024-02-04T09:21:38;14.00;;;5.40;;
41623;SDS011;27319;50.306;18.926;2024-02-04T09:24:39;10.95;;;5.30;;
41623;SDS011;27319;50.306;18.926;2024-02-04T09:27:40;12.98;;;5.75;;
41623;SDS011;27319;50.306;18.926;2024-02-04T09:30:41;15.68;;;8.25;;
41623;SDS011;27319;50.306;18.926;2024-02-04T09:33:42;9.73;;;5.57;;
41623;SDS011;27319;50.306;18.926;2024-02-04T09:36:43;12.35;;;5.72;;
41623;SDS011;27319;50.306;18.926;2024-02-04T09:39:44;12.63;;;5.28;;
41623;SDS011;27319;50.306;18.926;2024-02-04T09:42:45;9.52;;;4.30;;
41623;SDS011;27319;50.306;18.926;2024-02-04T09:45:47;11.18;;;5.45;;
41623;SDS011;27319;50.306;18.926;2024-02-04T09:48:50;9.40;;;5.60;;
41623;SDS011;27319;50.306;18.926;2024-02-04T09:51:52;10.70;;;4.80;;
41623;SDS011;27319;50.306;18.926;2024-02-04T09:55:00;10.68;;;4.00;;
41623;SDS011;27319;50.306;18.926;2024-02-04T09:58:03;14.50;;;4.60;;
41623;SDS011;27319;50.306;18.926;2024-02-04T10:01:04;11.80;;;5.53;;
41623;SDS011;27319;50.306;18.926;2024-02-04T10:04:09;13.68;;;4.90;;
41623;SDS011;27319;50.306;18.926;2024-02-04T10:07:10;16.75;;;5.43;;
41623;SDS011;27319;50.306;18.926;2024-02-04T10:10:13;24.80;;;11.48;;
41623;SDS011;27319;50.306;18.926;2024-02-04T10:13:14;8.68;;;4.82;;
41623;SDS011;27319;50.306;18.926;2024-02-04T10:16:16;12.93;;;4.80;;
41623;SDS011;27319;50.306;18.926;2024-02-04T10:19:17;14.90;;;5.28;;
41623;SDS011;27319;50.306;18.926;2024-02-04T10:22:18;12.23;;;5.75;;
41623;SDS011;27319;50.306;18.926;2024-02-04T10:25:20;15.25;;;7.50;;
41623;SDS011;27319;50.306;18.926;2024-02-04T10:28:21;14.65;;;6.93;;
41623;SDS011;27319;50.306;18.926;2024-02-04T10:31:22;17.40;;;6.03;;
41623;SDS011;27319;50.306;18.926;2024-02-04T10:34:25;31.58;;;19.13;;
41623;SDS011;27319;50.306;18.926;2024-02-04T10:37:27;15.75;;;7.00;;
41623;SDS011;27319;50.306;18.926;2024-02-04T10:40:27;19.70;;;9.30;;
41623;SDS011;27319;50.306;18.926;2024-02-04T10:43:30;13.10;;;6.22;;
41623;SDS011;27319;50.306;18.926;2024-02-04T10:46:34;16.35;;;7.20;;
41623;SDS011;27319;50.306;18.926;2024-02-04T10:49:38;12.57;;;5.35;;
41623;SDS011;27319;50.306;18.926;2024-02-04T10:52:46;14.05;;;6.30;;
41623;SDS011;27319;50.306;18.926;2024-02-04T10:55:50;16.55;;;5.50;;
41623;SDS011;27319;50.306;18.926;2024-02-04T10:58:58;13.60;;;4.43;;
41623;SDS011;27319;50.306;18.926;2024-02-04T11:02:04;11.15;;;3.95;;
41623;SDS011;27319;50.306;18.926;2024-02-04T11:06:04;13.38;;;4.10;;
41623;SDS011;27319;50.306;18.926;2024-02-04T11:10:05;8.50;;;4.20;;
41623;SDS011;27319;50.306;18.926;2024-02-04T11:14:08;11.15;;;4.55;;
41623;SDS011;27319;50.306;18.926;2024-02-04T11:18:14;16.80;;;8.23;;
41623;SDS011;27319;50.306;18.926;2024-02-04T11:22:20;15.52;;;7.82;;
41623;SDS011;27319;50.306;18.926;2024-02-04T11:26:16;10.88;;;5.60;;
41623;SDS011;27319;50.306;18.926;2024-02-04T11:30:17;11.98;;;6.50;;
41623;SDS011;27319;50.306;18.926;2024-02-04T11:34:18;19.60;;;9.90;;
41623;SDS011;27319;50.306;18.926;2024-02-04T11:38:19;26.45;;;10.05;;
41623;SDS011;27319;50.306;18.926;2024-02-04T11:42:22;27.50;;;15.10;;
41623;SDS011;27319;50.306;18.926;2024-02-04T11:46:21;42.53;;;20.10;;
41623;SDS011;27319;50.306;18.926;2024-02-04T11:50:27;12.57;;;7.35;;
41623;SDS011;27319;50.306;18.926;2024-02-04T11:54:22;17.55;;;10.65;;
41623;SDS011;27319;50.306;18.926;2024-02-04T11:58:23;19.05;;;10.15;;
41623;SDS011;27319;50.306;18.926;2024-02-04T12:02:24;23.65;;;12.60;;
41623;SDS011;27319;50.306;18.926;2024-02-04T12:06:25;34.75;;;19.25;;
41623;SDS011;27319;50.306;18.926;2024-02-04T12:10:26;29.60;;;18.05;;
41623;SDS011;27319;50.306;18.926;2024-02-04T12:14:26;22.60;;;12.85;;
41623;SDS011;27319;50.306;18.926;2024-02-04T12:18:27;15.15;;;9.25;;
41623;SDS011;27319;50.306;18.926;2024-02-04T12:22:31;24.80;;;13.65;;
41623;SDS011;27319;50.306;18.926;2024-02-04T12:26:31;28.35;;;15.95;;
41623;SDS011;27319;50.306;18.926;2024-02-04T12:30:32;31.02;;;17.50;;
41623;SDS011;27319;50.306;18.926;2024-02-04T12:34:33;38.33;;;22.65;;
41623;SDS011;27319;50.306;18.926;2024-02-04T12:38:34;38.28;;;21.80;;
41623;SDS011;27319;50.306;18.926;2024-02-04T12:42:35;43.85;;;24.65;;
41623;SDS011;27319;50.306;18.926;2024-02-04T12:46:35;52.90;;;29.60;;
41623;SDS011;27319;50.306;18.926;2024-02-04T12:50:37;52.25;;;29.75;;
41623;SDS011;27319;50.306;18.926;2024-02-04T12:54:43;66.68;;;38.78;;
41623;SDS011;27319;50.306;18.926;2024-02-04T12:58:44;51.10;;;30.23;;
41623;SDS011;27319;50.306;18.926;2024-02-04T13:02:48;52.20;;;27.98;;
41623;SDS011;27319;50.306;18.926;2024-02-04T13:06:46;42.15;;;23.63;;
41623;SDS011;27319;50.306;18.926;2024-02-04T13:10:55;37.65;;;23.73;;
41623;SDS011;27319;50.306;18.926;2024-02-04T13:15:02;48.88;;;27.88;;
41623;SDS011;27319;50.306;18.926;2024-02-04T13:19:03;55.13;;;28.60;;
41623;SDS011;27319;50.306;18.926;2024-02-04T13:23:04;52.05;;;30.80;;
41623;SDS011;27319;50.306;18.926;2024-02-04T13:27:04;46.47;;;27.55;;
41623;SDS011;27319;50.306;18.926;2024-02-04T13:31:05;40.92;;;24.08;;
41623;SDS011;27319;50.306;18.926;2024-02-04T13:35:06;24.83;;;16.20;;
41623;SDS011;27319;50.306;18.926;2024-02-04T13:39:07;27.98;;;14.52;;
41623;SDS011;27319;50.306;18.926;2024-02-04T13:43:07;35.78;;;21.15;;
41623;SDS011;27319;50.306;18.926;2024-02-04T13:47:08;35.58;;;19.40;;
41623;SDS011;27319;50.306;18.926;2024-02-04T13:51:09;26.55;;;15.88;;
41623;SDS011;27319;50.306;18.926;2024-02-04T13:55:10;35.15;;;16.98;;
41623;SDS011;27319;50.306;18.926;2024-02-04T13:59:11;68.00;;;26.73;;
41623;SDS011;27319;50.306;18.926;2024-02-04T14:03:12;37.03;;;16.27;;
41623;SDS011;27319;50.306;18.926;2024-02-04T14:07:12;24.77;;;13.30;;
41623;SDS011;27319;50.306;18.926;2024-02-04T14:11:13;24.92;;;13.20;;
41623;SDS011;27319;50.306;18.926;2024-02-04T14:15:17;26.02;;;14.90;;
41623;SDS011;27319;50.306;18.926;2024-02-04T14:19:18;20.83;;;10.77;;
41623;SDS011;27319;50.306;18.926;2024-02-04T14:23:19;16.85;;;9.00;;
41623;SDS011;27319;50.306;18.926;2024-02-04T14:27:19;21.02;;;11.60;;
41623;SDS011;27319;50.306;18.926;2024-02-04T14:31:21;14.88;;;8.15;;
41623;SDS011;27319;50.306;18.926;2024-02-04T14:35:22;28.83;;;13.55;;
41623;SDS011;27319;50.306;18.926;2024-02-04T14:39:02;16.02;;;10.10;;
41623;SDS011;27319;50.306;18.926;2024-02-04T14:42:05;19.85;;;10.07;;
41623;SDS011;27319;50.306;18.926;2024-02-04T14:45:06;22.02;;;10.85;;
41623;SDS011;27319;50.306;18.926;2024-02-04T14:48:08;17.50;;;9.70;;
41623;SDS011;27319;50.306;18.926;2024-02-04T14:51:09;19.05;;;10.52;;
41623;SDS011;27319;50.306;18.926;2024-02-04T14:54:09;23.45;;;12.45;;
41623;SDS011;27319;50.306;18.926;2024-02-04T14:57:11;20.27;;;9.30;;
41623;SDS011;27319;50.306;18.926;2024-02-04T15:00:11;18.52;;;10.35;;
41623;SDS011;27319;50.306;18.926;2024-02-04T15:03:13;28.90;;;14.05;;
41623;SDS011;27319;50.306;18.926;2024-02-04T15:06:14;19.98;;;10.88;;
41623;SDS011;27319;50.306;18.926;2024-02-04T15:09:16;18.95;;;10.75;;
41623;SDS011;27319;50.306;18.926;2024-02-04T15:12:17;13.85;;;8.13;;
41623;SDS011;27319;50.306;18.926;2024-02-04T15:15:19;12.18;;;7.18;;
41623;SDS011;27319;50.306;18.926;2024-02-04T15:18:20;15.40;;;7.53;;
41623;SDS011;27319;50.306;18.926;2024-02-04T15:21:21;16.40;;;8.57;;
41623;SDS011;27319;50.306;18.926;2024-02-04T15:24:24;16.48;;;8.43;;
41623;SDS011;27319;50.306;18.926;2024-02-04T15:27:26;17.17;;;10.48;;
41623;SDS011;27319;50.306;18.926;2024-02-04T15:30:28;19.20;;;10.90;;
41623;SDS011;27319;50.306;18.926;2024-02-04T15:33:30;14.02;;;7.20;;
41623;SDS011;27319;50.306;18.926;2024-02-04T15:36:31;15.43;;;9.95;;
41623;SDS011;27319;50.306;18.926;2024-02-04T15:39:33;18.88;;;9.75;;
41623;SDS011;27319;50.306;18.926;2024-02-04T15:42:35;20.25;;;10.45;;
41623;SDS011;27319;50.306;18.926;2024-02-04T15:45:36;16.63;;;9.43;;
41623;SDS011;27319;50.306;18.926;2024-02-04T15:48:40;22.00;;;12.63;;
41623;SDS011;27319;50.306;18.926;2024-02-04T15:51:44;17.02;;;10.10;;
41623;SDS011;27319;50.306;18.926;2024-02-04T15:54:46;16.58;;;10.85;;
41623;SDS011;27319;50.306;18.926;2024-02-04T15:57:51;16.13;;;10.43;;
41623;SDS011;27319;50.306;18.926;2024-02-04T16:00:53;20.95;;;12.13;;
41623;SDS011;27319;50.306;18.926;2024-02-04T16:03:55;20.75;;;12.48;;
41623;SDS011;27319;50.306;18.926;2024-02-04T16:06:56;16.48;;;11.15;;
41623;SDS011;27319;50.306;18.926;2024-02-04T16:09:57;24.27;;;13.35;;
41623;SDS011;27319;50.306;18.926;2024-02-04T16:12:58;22.17;;;13.23;;
41623;SDS011;27319;50.306;18.926;2024-02-04T16:16:03;22.77;;;15.45;;
41623;SDS011;27319;50.306;18.926;2024-02-04T16:19:13;25.40;;;15.02;;
41623;SDS011;27319;50.306;18.926;2024-02-04T16:22:15;30.90;;;17.17;;
41623;SDS011;27319;50.306;18.926;2024-02-04T16:25:16;25.92;;;13.10;;
41623;SDS011;27319;50.306;18.926;2024-02-04T16:28:18;17.30;;;9.73;;
41623;SDS011;27319;50.306;18.926;2024-02-04T16:31:19;21.80;;;11.95;;
41623;SDS011;27319;50.306;18.926;2024-02-04T16:34:20;19.70;;;11.32;;
41623;SDS011;27319;50.306;18.926;2024-02-04T16:37:20;19.95;;;11.32;;
41623;SDS011;27319;50.306;18.926;2024-02-04T16:40:22;11.73;;;6.82;;
41623;SDS011;27319;50.306;18.926;2024-02-04T16:43:25;13.68;;;7.35;;
41623;SDS011;27319;50.306;18.926;2024-02-04T16:46:26;17.00;;;9.73;;
41623;SDS011;27319;50.306;18.926;2024-02-04T16:49:28;20.63;;;8.75;;
41623;SDS011;27319;50.306;18.926;2024-02-04T16:52:29;17.75;;;10.25;;
41623;SDS011;27319;50.306;18.926;2024-02-04T16:55:30;16.40;;;9.63;;
41623;SDS011;27319;50.306;18.926;2024-02-04T16:58:31;17.05;;;10.07;;
41623;SDS011;27319;50.306;18.926;2024-02-04T17:01:32;22.13;;;11.65;;
41623;SDS011;27319;50.306;18.926;2024-02-04T17:04:33;19.58;;;11.43;;
41623;SDS011;27319;50.306;18.926;2024-02-04T17:08:34;21.50;;;12.73;;
41623;SDS011;27319;50.306;18.926;2024-02-04T17:12:34;13.52;;;8.80;;
41623;SDS011;27319;50.306;18.926;2024-02-04T17:20:11;19.15;;;11.65;;
41623;SDS011;27319;50.306;18.926;2024-02-04T17:24:17;21.27;;;11.02;;
41623;SDS011;27319;50.306;18.926;2024-02-04T17:28:16;18.70;;;10.73;;
41623;SDS011;27319;50.306;18.926;2024-02-04T17:32:17;16.73;;;10.32;;
41623;SDS011;27319;50.306;18.926;2024-02-04T17:36:18;18.77;;;11.02;;
41623;SDS011;27319;50.306;18.926;2024-02-04T17:40:19;14.20;;;8.25;;
41623;SDS011;27319;50.306;18.926;2024-02-04T17:44:20;13.45;;;7.82;;
41623;SDS011;27319;50.306;18.926;2024-02-04T17:48:21;12.88;;;8.05;;
41623;SDS011;27319;50.306;18.926;2024-02-04T17:52:22;11.50;;;8.00;;
41623;SDS011;27319;50.306;18.926;2024-02-04T17:56:22;12.98;;;7.70;;
41623;SDS011;27319;50.306;18.926;2024-02-04T18:00:23;12.52;;;7.45;;
41623;SDS011;27319;50.306;18.926;2024-02-04T18:04:24;11.43;;;6.45;;
41623;SDS011;27319;50.306;18.926;2024-02-04T18:08:25;14.38;;;8.13;;
41623;SDS011;27319;50.306;18.926;2024-02-04T18:12:28;12.25;;;6.63;;
41623;SDS011;27319;50.306;18.926;2024-02-04T18:16:29;11.95;;;6.20;;
41623;SDS011;27319;50.306;18.926;2024-02-04T18:20:30;17.15;;;7.80;;
41623;SDS011;27319;50.306;18.926;2024-02-04T18:24:31;15.75;;;9.45;;
41623;SDS011;27319;50.306;18.926;2024-02-04T18:28:32;13.63;;;8.40;;
41623;SDS011;27319;50.306;18.926;2024-02-04T18:32:33;21.05;;;11.10;;
41623;SDS011;27319;50.306;18.926;2024-02-04T18:36:34;17.38;;;10.50;;
41623;SDS011;27319;50.306;18.926;2024-02-04T18:40:34;14.45;;;8.10;;
41623;SDS011;27319;50.306;18.926;2024-02-04T18:44:35;13.43;;;7.30;;
41623;SDS011;27319;50.306;18.926;2024-02-04T18:48:36;12.13;;;6.60;;
41623;SDS011;27319;50.306;18.926;2024-02-04T18:52:37;13.70;;;7.55;;
41623;SDS011;27319;50.306;18.926;2024-02-04T18:56:44;16.73;;;7.97;;
41623;SDS011;27319;50.306;18.926;2024-02-04T19:00:45;14.05;;;7.40;;
41623;SDS011;27319;50.306;18.926;2024-02-04T19:04:46;15.82;;;6.60;;
41623;SDS011;27319;50.306;18.926;2024-02-04T19:08:47;11.27;;;4.80;;
41623;SDS011;27319;50.306;18.926;2024-02-04T19:12:47;16.00;;;6.38;;
41623;SDS011;27319;50.306;18.926;2024-02-04T19:16:48;15.48;;;8.15;;
41623;SDS011;27319;50.306;18.926;2024-02-04T19:20:49;12.52;;;5.75;;
41623;SDS011;27319;50.306;18.926;2024-02-04T19:24:50;14.18;;;6.88;;
41623;SDS011;27319;50.306;18.926;2024-02-04T19:28:56;20.92;;;9.95;;
41623;SDS011;27319;50.306;18.926;2024-02-04T19:32:57;15.90;;;6.68;;
41623;SDS011;27319;50.306;18.926;2024-02-04T19:36:58;19.13;;;9.05;;
41623;SDS011;27319;50.306;18.926;2024-02-04T19:40:59;15.70;;;7.68;;
41623;SDS011;27319;50.306;18.926;2024-02-04T19:44:59;18.88;;;8.82;;
41623;SDS011;27319;50.306;18.926;2024-02-04T19:49:00;17.83;;;8.93;;
41623;SDS011;27319;50.306;18.926;2024-02-04T19:53:01;10.68;;;5.95;;
41623;SDS011;27319;50.306;18.926;2024-02-04T19:57:02;16.33;;;7.22;;
41623;SDS011;27319;50.306;18.926;2024-02-04T20:01:02;14.02;;;5.55;;
41623;SDS011;27319;50.306;18.926;2024-02-04T20:05:03;9.75;;;5.10;;
41623;SDS011;27319;50.306;18.926;2024-02-04T20:09:04;22.98;;;11.02;;
41623;SDS011;27319;50.306;18.926;2024-02-04T20:13:04;13.68;;;6.32;;
41623;SDS011;27319;50.306;18.926;2024-02-04T20:16:05;9.85;;;4.70;;
41623;SDS011;27319;50.306;18.926;2024-02-04T20:19:06;14.75;;;5.65;;
41623;SDS011;27319;50.306;18.926;2024-02-04T20:22:07;11.35;;;6.07;;
41623;SDS011;27319;50.306;18.926;2024-02-04T20:25:08;8.88;;;4.63;;
41623;SDS011;27319;50.306;18.926;2024-02-04T20:28:10;7.90;;;4.00;;
41623;SDS011;27319;50.306;18.926;2024-02-04T20:31:11;10.05;;;4.10;;